createdAt,value
2022-10-06T00:00:23.045Z,2.50
2022-10-06T00:00:58.330Z,4.40
2022-10-06T00:01:33.894Z,4.00
2022-10-06T00:02:09.006Z,3.00
2022-10-06T00:02:44.024Z,7.30
2022-10-06T00:03:19.308Z,6.00
2022-10-06T00:03:54.753Z,3.70
2022-10-06T00:04:30.059Z,5.60
2022-10-06T00:05:05.611Z,6.00
2022-10-06T00:05:41.107Z,5.40
2022-10-06T00:06:16.342Z,3.50
2022-10-06T00:06:51.507Z,2.90
2022-10-06T00:07:26.885Z,4.80
2022-10-06T00:08:02.762Z,3.70
2022-10-06T00:08:38.132Z,4.20
2022-10-06T00:09:13.655Z,4.30
2022-10-06T00:09:48.905Z,2.50
2022-10-06T00:10:24.297Z,2.80
2022-10-06T00:10:59.500Z,4.30
2022-10-06T00:11:35.085Z,5.40
2022-10-06T00:12:11.209Z,5.10
2022-10-06T00:12:46.461Z,7.40
2022-10-06T00:13:21.932Z,4.20
2022-10-06T00:13:57.529Z,3.40
2022-10-06T00:14:33.080Z,3.40
2022-10-06T00:15:08.306Z,4.50
2022-10-06T00:15:43.473Z,2.80
2022-10-06T00:16:18.663Z,2.50
2022-10-06T00:16:54.479Z,3.60
2022-10-06T00:17:29.912Z,5.30
2022-10-06T00:18:05.399Z,4.50
2022-10-06T00:18:41.494Z,4.80
2022-10-06T00:19:16.549Z,7.30
2022-10-06T00:19:52.185Z,8.90
2022-10-06T00:20:27.273Z,3.20
2022-10-06T00:21:02.704Z,2.90
2022-10-06T00:21:37.550Z,8.50
2022-10-06T00:22:12.986Z,10.00
2022-10-06T00:22:49.076Z,4.60
2022-10-06T00:23:24.523Z,5.60
2022-10-06T00:23:59.749Z,4.00
2022-10-06T00:24:35.128Z,5.80
2022-10-06T00:25:10.791Z,5.90
2022-10-06T00:25:46.149Z,4.10
2022-10-06T00:26:21.156Z,3.00
2022-10-06T00:26:56.916Z,4.80
2022-10-06T00:27:32.871Z,5.20
2022-10-06T00:28:08.145Z,4.50
2022-10-06T00:28:43.657Z,4.30
2022-10-06T00:29:19.396Z,5.40
2022-10-06T00:29:54.936Z,5.70
2022-10-06T00:30:30.179Z,5.10
2022-10-06T00:31:05.641Z,7.50
2022-10-06T00:31:40.847Z,6.20
2022-10-06T00:32:16.773Z,5.90
2022-10-06T00:32:52.605Z,5.30
2022-10-06T00:33:29.100Z,3.30
2022-10-06T00:34:04.590Z,4.70
2022-10-06T00:34:40.064Z,3.20
2022-10-06T00:35:15.504Z,2.00
2022-10-06T00:35:51.367Z,2.90
2022-10-06T00:36:27.399Z,4.50
2022-10-06T00:37:02.725Z,3.80
2022-10-06T00:37:38.275Z,6.70
2022-10-06T00:38:13.389Z,7.90
2022-10-06T00:38:48.976Z,5.70
2022-10-06T00:39:24.403Z,3.60
2022-10-06T00:39:59.503Z,5.20
2022-10-06T00:40:34.784Z,6.90
2022-10-06T00:41:10.687Z,6.60
2022-10-06T00:41:46.054Z,3.50
2022-10-06T00:42:21.438Z,3.30
2022-10-06T00:42:56.697Z,2.90
2022-10-06T00:43:31.905Z,3.20
2022-10-06T00:44:07.114Z,5.40
2022-10-06T00:44:42.541Z,7.00
2022-10-06T00:45:18.404Z,3.40
2022-10-06T00:45:54.348Z,5.30
2022-10-06T00:46:29.839Z,3.30
2022-10-06T00:47:04.923Z,8.20
2022-10-06T00:47:40.513Z,5.50
2022-10-06T00:48:15.889Z,2.70
2022-10-06T00:48:51.255Z,8.60
2022-10-06T00:49:26.586Z,10.00
2022-10-06T00:50:02.174Z,5.40
2022-10-06T00:50:37.412Z,2.80
2022-10-06T00:51:13.026Z,3.40
2022-10-06T00:51:48.331Z,5.50
2022-10-06T00:52:23.861Z,8.40
2022-10-06T00:52:59.390Z,8.90
2022-10-06T00:53:34.833Z,7.50
2022-10-06T00:54:10.040Z,4.30
2022-10-06T00:54:45.377Z,5.30
2022-10-06T00:55:20.814Z,3.50
2022-10-06T00:55:56.973Z,3.80
2022-10-06T00:56:32.157Z,3.20
2022-10-06T00:57:07.706Z,5.60
2022-10-06T00:57:43.142Z,4.30
2022-10-06T00:58:18.567Z,4.20
2022-10-06T00:58:54.390Z,4.20
2022-10-06T00:59:29.684Z,4.20
2022-10-06T01:00:05.286Z,4.90
2022-10-06T01:00:40.645Z,5.90
2022-10-06T01:01:15.986Z,5.90
2022-10-06T01:01:51.157Z,6.50
2022-10-06T01:02:26.620Z,7.30
2022-10-06T01:03:03.065Z,5.40
2022-10-06T01:03:38.796Z,6.60
2022-10-06T01:04:13.916Z,6.50
2022-10-06T01:04:49.273Z,5.30
2022-10-06T01:05:24.758Z,7.60
2022-10-06T01:06:00.903Z,6.70
2022-10-06T01:06:36.123Z,7.10
2022-10-06T01:07:11.851Z,3.90
2022-10-06T01:07:47.101Z,6.10
2022-10-06T01:08:22.532Z,7.10
2022-10-06T01:08:57.851Z,6.20
2022-10-06T01:09:33.570Z,5.30
2022-10-06T01:10:08.899Z,5.80
2022-10-06T01:10:44.277Z,7.30
2022-10-06T01:11:20.527Z,8.40
2022-10-06T01:11:55.904Z,8.90
2022-10-06T01:12:31.290Z,10.30
2022-10-06T01:13:08.300Z,10.60
2022-10-06T01:13:44.419Z,6.10
2022-10-06T01:14:19.729Z,10.80
2022-10-06T01:14:55.805Z,8.60
2022-10-06T01:15:31.077Z,6.50
2022-10-06T01:16:06.761Z,4.90
2022-10-06T01:16:42.797Z,7.80
2022-10-06T01:17:17.997Z,7.40
2022-10-06T01:17:53.918Z,5.40
2022-10-06T01:18:29.246Z,5.70
2022-10-06T01:19:04.283Z,4.00
2022-10-06T01:19:39.581Z,3.30
2022-10-06T01:20:15.117Z,4.70
2022-10-06T01:20:50.310Z,6.20
2022-10-06T01:21:25.646Z,3.50
2022-10-06T01:22:01.208Z,5.20
2022-10-06T01:22:36.690Z,3.40
2022-10-06T01:23:12.229Z,5.80
2022-10-06T01:23:48.405Z,7.70
2022-10-06T01:24:23.433Z,6.00
2022-10-06T01:24:58.653Z,5.90
2022-10-06T01:25:34.271Z,4.20
2022-10-06T01:26:09.704Z,5.10
2022-10-06T01:26:45.137Z,7.30
2022-10-06T01:27:21.042Z,5.60
2022-10-06T01:27:56.317Z,4.30
2022-10-06T01:28:32.019Z,4.90
2022-10-06T01:29:06.708Z,4.60
2022-10-06T01:29:41.829Z,4.70
2022-10-06T01:30:17.249Z,6.80
2022-10-06T01:30:52.538Z,7.40
2022-10-06T01:31:28.360Z,7.70
2022-10-06T01:32:03.610Z,5.80
2022-10-06T01:32:38.758Z,5.70
2022-10-06T01:33:14.092Z,8.00
2022-10-06T01:33:49.203Z,6.10
2022-10-06T01:34:24.995Z,14.00
2022-10-06T01:35:00.630Z,15.10
2022-10-06T01:35:36.042Z,9.30
2022-10-06T01:36:11.193Z,11.20
2022-10-06T01:36:47.313Z,5.10
2022-10-06T01:37:22.816Z,4.90
2022-10-06T01:37:58.914Z,7.10
2022-10-06T01:38:34.395Z,10.50
2022-10-06T01:39:09.638Z,10.40
2022-10-06T01:39:45.134Z,10.00
2022-10-06T01:40:20.380Z,8.90
2022-10-06T01:40:55.413Z,4.40
2022-10-06T01:41:33.441Z,8.90
2022-10-06T01:42:08.859Z,9.10
2022-10-06T01:42:44.445Z,8.10
2022-10-06T01:43:19.876Z,5.30
2022-10-06T01:43:55.105Z,5.80
2022-10-06T01:44:30.622Z,6.50
2022-10-06T01:45:06.719Z,4.10
2022-10-06T01:45:41.889Z,3.60
2022-10-06T01:46:17.382Z,5.70
2022-10-06T01:46:53.417Z,6.30
2022-10-06T01:47:29.138Z,4.30
2022-10-06T01:48:04.379Z,7.10
2022-10-06T01:48:39.393Z,5.40
2022-10-06T01:49:14.804Z,5.50
2022-10-06T01:49:50.118Z,6.00
2022-10-06T01:50:25.305Z,8.10
2022-10-06T01:51:00.728Z,5.50
2022-10-06T01:51:36.567Z,6.60
2022-10-06T01:52:12.000Z,4.10
2022-10-06T01:52:47.080Z,5.20
2022-10-06T01:53:22.375Z,10.30
2022-10-06T01:53:57.568Z,7.50
2022-10-06T01:54:32.604Z,4.70
2022-10-06T01:55:08.081Z,6.50
2022-10-06T01:55:43.171Z,5.00
2022-10-06T01:56:18.485Z,6.90
2022-10-06T01:56:54.197Z,4.30
2022-10-06T01:57:29.375Z,5.30
2022-10-06T01:58:04.666Z,5.40
2022-10-06T01:58:39.872Z,8.90
2022-10-06T01:59:15.325Z,7.20
2022-10-06T01:59:54.830Z,5.80
2022-10-06T02:00:27.711Z,3.80
2022-10-06T02:01:03.192Z,4.70
2022-10-06T02:01:39.024Z,6.50
2022-10-06T02:02:14.205Z,5.50
2022-10-06T02:02:49.443Z,7.20
2022-10-06T02:03:24.757Z,8.20
2022-10-06T02:04:00.551Z,8.00
2022-10-06T02:04:36.049Z,5.90
2022-10-06T02:05:11.502Z,5.70
2022-10-06T02:05:47.172Z,3.80
2022-10-06T02:06:22.384Z,8.20
2022-10-06T02:06:57.562Z,9.10
2022-10-06T02:07:32.857Z,9.50
2022-10-06T02:08:08.115Z,9.50
2022-10-06T02:08:43.447Z,12.20
2022-10-06T02:09:19.405Z,11.20
2022-10-06T02:09:55.083Z,5.30
2022-10-06T02:10:30.286Z,4.90
2022-10-06T02:11:05.496Z,5.00
2022-10-06T02:11:40.830Z,3.50
2022-10-06T02:12:16.169Z,6.90
2022-10-06T02:12:51.920Z,9.70
2022-10-06T02:13:26.989Z,5.30
2022-10-06T02:14:02.158Z,6.50
2022-10-06T02:14:37.758Z,6.20
2022-10-06T02:15:13.799Z,8.10
2022-10-06T02:15:49.016Z,8.10
2022-10-06T02:16:24.466Z,6.50
2022-10-06T02:16:59.621Z,5.40
2022-10-06T02:17:34.814Z,3.00
2022-10-06T02:18:10.357Z,3.40
2022-10-06T02:18:45.631Z,4.00
2022-10-06T02:19:21.809Z,3.50
2022-10-06T02:19:57.286Z,4.10
2022-10-06T02:20:32.567Z,4.90
2022-10-06T02:21:08.925Z,7.20
2022-10-06T02:21:44.365Z,7.60
2022-10-06T02:22:20.027Z,6.20
2022-10-06T02:22:55.200Z,5.70
2022-10-06T02:23:30.865Z,4.80
2022-10-06T02:24:06.295Z,5.20
2022-10-06T02:24:42.817Z,5.30
2022-10-06T02:25:18.157Z,9.50
2022-10-06T02:25:53.496Z,7.60
2022-10-06T02:26:28.967Z,3.50
2022-10-06T02:27:04.271Z,5.20
2022-10-06T02:27:39.694Z,6.30
2022-10-06T02:28:15.089Z,10.30
2022-10-06T02:28:50.897Z,10.20
2022-10-06T02:29:26.304Z,9.40
2022-10-06T02:30:01.327Z,7.10
2022-10-06T02:30:36.564Z,6.10
2022-10-06T02:31:12.046Z,8.40
2022-10-06T02:31:47.532Z,9.40
2022-10-06T02:32:22.599Z,7.30
2022-10-06T02:32:58.326Z,8.60
2022-10-06T02:33:33.728Z,7.00
2022-10-06T02:34:09.296Z,13.50
2022-10-06T02:34:44.724Z,14.80
2022-10-06T02:35:20.170Z,9.00
2022-10-06T02:35:55.718Z,10.40
2022-10-06T02:36:30.878Z,7.20
2022-10-06T02:37:06.720Z,3.70
2022-10-06T02:37:42.656Z,6.00
2022-10-06T02:38:17.661Z,7.50
2022-10-06T02:38:53.090Z,7.10
2022-10-06T02:39:28.651Z,14.60
2022-10-06T02:40:04.388Z,13.70
2022-10-06T02:40:40.211Z,7.20
2022-10-06T02:41:15.762Z,8.80
2022-10-06T02:41:51.151Z,10.90
2022-10-06T02:42:27.046Z,10.70
2022-10-06T02:43:02.615Z,7.80
2022-10-06T02:43:38.545Z,17.20
2022-10-06T02:44:14.538Z,15.10
2022-10-06T02:44:50.542Z,6.40
2022-10-06T02:45:25.773Z,6.10
2022-10-06T02:46:01.014Z,8.60
2022-10-06T02:46:36.369Z,9.90
2022-10-06T02:47:11.749Z,8.10
2022-10-06T02:47:47.501Z,5.20
2022-10-06T02:48:22.921Z,10.90
2022-10-06T02:48:58.332Z,10.90
2022-10-06T02:49:33.724Z,6.20
2022-10-06T02:50:08.889Z,6.50
2022-10-06T02:50:44.234Z,7.10
2022-10-06T02:51:19.654Z,8.90
2022-10-06T02:51:55.465Z,6.80
2022-10-06T02:52:30.853Z,5.50
2022-10-06T02:53:06.005Z,3.80
2022-10-06T02:53:41.919Z,9.40
2022-10-06T02:54:17.061Z,14.90
2022-10-06T02:54:52.377Z,10.40
2022-10-06T02:55:27.514Z,8.90
2022-10-06T02:56:02.729Z,6.80
2022-10-06T02:56:38.919Z,4.40
2022-10-06T02:57:14.223Z,7.30
2022-10-06T02:57:49.562Z,6.90
2022-10-06T02:58:26.021Z,5.50
2022-10-06T02:59:00.924Z,10.60
2022-10-06T02:59:36.327Z,10.90
2022-10-06T03:00:11.851Z,9.30
2022-10-06T03:00:47.469Z,13.40
2022-10-06T03:01:23.160Z,9.40
2022-10-06T03:01:58.615Z,6.10
2022-10-06T03:02:33.917Z,8.30
2022-10-06T03:03:10.227Z,11.60
2022-10-06T03:03:45.678Z,10.60
2022-10-06T03:04:20.798Z,7.00
2022-10-06T03:04:56.940Z,8.00
2022-10-06T03:05:32.256Z,10.20
2022-10-06T03:06:07.645Z,10.60
2022-10-06T03:06:43.216Z,9.80
2022-10-06T03:07:18.511Z,7.10
2022-10-06T03:07:53.701Z,9.60
2022-10-06T03:08:29.135Z,8.30
2022-10-06T03:09:04.275Z,10.60
2022-10-06T03:09:39.500Z,9.80
2022-10-06T03:10:14.991Z,5.30
2022-10-06T03:10:50.289Z,5.10
2022-10-06T03:11:25.603Z,8.70
2022-10-06T03:12:00.927Z,10.90
2022-10-06T03:12:36.175Z,12.30
2022-10-06T03:13:12.074Z,12.00
2022-10-06T03:13:47.216Z,11.40
2022-10-06T03:14:22.280Z,8.80
2022-10-06T03:14:57.223Z,8.40
2022-10-06T03:15:32.450Z,11.50
2022-10-06T03:16:07.734Z,12.00
2022-10-06T03:16:43.907Z,11.90
2022-10-06T03:17:19.897Z,15.00
2022-10-06T03:17:55.440Z,15.80
2022-10-06T03:18:30.997Z,11.00
2022-10-06T03:19:05.742Z,7.80
2022-10-06T03:19:40.966Z,6.80
2022-10-06T03:20:15.961Z,7.50
2022-10-06T03:20:52.121Z,7.40
2022-10-06T03:21:27.250Z,10.50
2022-10-06T03:22:02.711Z,7.40
2022-10-06T03:22:38.320Z,5.50
2022-10-06T03:23:13.771Z,6.20
2022-10-06T03:23:48.625Z,12.00
2022-10-06T03:24:24.231Z,12.50
2022-10-06T03:24:59.650Z,9.80
2022-10-06T03:25:34.861Z,6.40
2022-10-06T03:26:10.896Z,11.00
2022-10-06T03:26:46.319Z,11.70
2022-10-06T03:27:21.706Z,11.10
2022-10-06T03:27:57.070Z,12.30
2022-10-06T03:28:32.876Z,8.20
2022-10-06T03:29:11.369Z,18.70
2022-10-06T03:29:42.941Z,19.80
2022-10-06T03:30:18.249Z,7.10
2022-10-06T03:30:53.688Z,10.40
2022-10-06T03:31:28.862Z,8.20
2022-10-06T03:32:04.111Z,12.40
2022-10-06T03:32:39.500Z,20.20
2022-10-06T03:33:14.748Z,21.30
2022-10-06T03:33:49.907Z,13.00
2022-10-06T03:34:25.861Z,15.90
2022-10-06T03:35:01.321Z,9.90
2022-10-06T03:35:36.651Z,8.60
2022-10-06T03:36:11.840Z,13.10
2022-10-06T03:36:47.084Z,11.10
2022-10-06T03:37:22.137Z,8.20
2022-10-06T03:37:57.242Z,9.00
2022-10-06T03:38:32.417Z,13.30
2022-10-06T03:39:07.809Z,11.20
2022-10-06T03:39:43.453Z,20.10
2022-10-06T03:40:18.764Z,18.20
2022-10-06T03:40:54.324Z,8.30
2022-10-06T03:41:30.247Z,8.30
2022-10-06T03:42:05.753Z,12.60
2022-10-06T03:42:41.098Z,15.60
2022-10-06T03:43:16.328Z,9.40
2022-10-06T03:43:52.470Z,10.00
2022-10-06T03:44:27.604Z,12.50
2022-10-06T03:45:02.751Z,16.60
2022-10-06T03:45:37.975Z,16.40
2022-10-06T03:46:13.206Z,13.80
2022-10-06T03:46:48.394Z,9.20
2022-10-06T03:47:23.494Z,7.60
2022-10-06T03:47:58.663Z,9.60
2022-10-06T03:48:33.711Z,9.30
2022-10-06T03:49:08.765Z,6.50
2022-10-06T03:49:44.140Z,12.60
2022-10-06T03:50:19.339Z,13.40
2022-10-06T03:50:54.710Z,14.10
2022-10-06T03:51:30.416Z,13.80
2022-10-06T03:52:05.733Z,10.30
2022-10-06T03:52:41.380Z,9.90
2022-10-06T03:53:16.809Z,9.10
2022-10-06T03:53:53.032Z,11.70
2022-10-06T03:54:28.155Z,9.20
2022-10-06T03:55:03.395Z,15.00
2022-10-06T03:55:38.739Z,14.30
2022-10-06T03:56:14.348Z,8.00
2022-10-06T03:56:49.918Z,10.00
2022-10-06T03:57:25.294Z,16.40
2022-10-06T03:58:00.621Z,19.10
2022-10-06T03:58:35.768Z,14.30
2022-10-06T03:59:11.297Z,11.30
2022-10-06T03:59:46.727Z,9.30
2022-10-06T04:00:22.292Z,8.50
2022-10-06T04:00:57.709Z,11.60
2022-10-06T04:01:32.919Z,12.90
2022-10-06T04:02:08.151Z,8.90
2022-10-06T04:02:43.443Z,8.90
2022-10-06T04:03:19.102Z,11.30
2022-10-06T04:03:54.519Z,11.90
2022-10-06T04:04:29.648Z,12.90
2022-10-06T04:05:04.804Z,16.20
2022-10-06T04:05:40.257Z,20.40
2022-10-06T04:06:15.695Z,15.00
2022-10-06T04:06:51.682Z,10.40
2022-10-06T04:07:26.909Z,9.40
2022-10-06T04:08:02.130Z,10.10
2022-10-06T04:08:37.283Z,11.20
2022-10-06T04:09:15.261Z,16.40
2022-10-06T04:09:48.101Z,10.90
2022-10-06T04:10:23.334Z,11.10
2022-10-06T04:10:58.740Z,11.90
2022-10-06T04:11:34.399Z,11.00
2022-10-06T04:12:10.371Z,10.80
2022-10-06T04:12:45.554Z,6.50
2022-10-06T04:13:20.951Z,16.90
2022-10-06T04:13:56.462Z,19.30
2022-10-06T04:14:31.594Z,11.20
2022-10-06T04:15:07.361Z,10.10
2022-10-06T04:15:42.493Z,16.50
2022-10-06T04:16:25.182Z,17.30
2022-10-06T04:17:00.523Z,13.80
2022-10-06T04:17:35.829Z,9.70
2022-10-06T04:18:11.418Z,12.40
2022-10-06T04:18:46.840Z,12.10
2022-10-06T04:19:22.081Z,14.60
2022-10-06T04:19:57.355Z,16.00
2022-10-06T04:20:32.549Z,20.80
2022-10-06T04:21:08.072Z,17.60
2022-10-06T04:21:43.374Z,13.50
2022-10-06T04:22:18.697Z,19.30
2022-10-06T04:22:54.253Z,19.30
2022-10-06T04:23:29.652Z,23.30
2022-10-06T04:24:04.981Z,22.00
2022-10-06T04:24:40.558Z,15.60
2022-10-06T04:25:15.768Z,10.60
2022-10-06T04:25:55.757Z,14.20
2022-10-06T04:26:26.517Z,17.50
2022-10-06T04:27:01.961Z,13.20
2022-10-06T04:27:37.307Z,12.60
2022-10-06T04:28:12.700Z,14.60
2022-10-06T04:28:48.158Z,10.10
2022-10-06T04:29:23.166Z,8.10
2022-10-06T04:29:58.620Z,6.40
2022-10-06T04:30:33.629Z,9.10
2022-10-06T04:31:08.867Z,11.40
2022-10-06T04:31:44.038Z,14.70
2022-10-06T04:32:19.405Z,12.90
2022-10-06T04:32:54.633Z,11.40
2022-10-06T04:33:29.839Z,12.20
2022-10-06T04:34:05.076Z,12.40
2022-10-06T04:34:40.499Z,11.80
2022-10-06T04:35:15.625Z,18.10
2022-10-06T04:35:51.160Z,17.70
2022-10-06T04:36:26.253Z,12.70
2022-10-06T04:37:01.438Z,11.20
2022-10-06T04:37:36.686Z,15.70
2022-10-06T04:38:11.683Z,20.10
2022-10-06T04:38:46.654Z,15.90
2022-10-06T04:39:21.755Z,14.70
2022-10-06T04:39:56.779Z,13.70
2022-10-06T04:40:31.951Z,14.40
2022-10-06T04:41:07.179Z,21.40
2022-10-06T04:41:42.503Z,14.00
2022-10-06T04:42:17.593Z,15.80
2022-10-06T04:42:53.239Z,18.00
2022-10-06T04:43:28.346Z,17.10
2022-10-06T04:44:03.668Z,14.50
2022-10-06T04:44:38.997Z,12.90
2022-10-06T04:45:14.380Z,9.00
2022-10-06T04:45:49.643Z,9.30
2022-10-06T04:46:42.232Z,10.80
2022-10-06T04:47:00.438Z,11.80
2022-10-06T04:47:35.469Z,9.10
2022-10-06T04:48:10.665Z,14.90
2022-10-06T04:48:45.783Z,15.60
2022-10-06T04:49:21.314Z,12.10
2022-10-06T04:49:56.522Z,13.20
2022-10-06T04:50:31.840Z,14.00
2022-10-06T04:51:07.229Z,12.50
2022-10-06T04:51:42.749Z,19.40
2022-10-06T04:52:18.373Z,17.50
2022-10-06T04:52:53.991Z,14.80
2022-10-06T04:53:28.920Z,13.60
2022-10-06T04:54:04.325Z,8.60
2022-10-06T04:54:39.679Z,8.30
2022-10-06T04:55:14.667Z,7.30
2022-10-06T04:55:49.980Z,10.60
2022-10-06T04:56:25.190Z,17.10
2022-10-06T04:57:00.521Z,13.00
2022-10-06T04:57:36.001Z,11.40
2022-10-06T04:58:11.397Z,10.80
2022-10-06T04:58:46.818Z,19.00
2022-10-06T04:59:22.358Z,18.60
2022-10-06T04:59:59.473Z,15.00
2022-10-06T05:00:33.273Z,13.60
2022-10-06T05:01:08.507Z,12.00
2022-10-06T05:01:43.699Z,13.00
2022-10-06T05:02:19.346Z,11.20
2022-10-06T05:02:54.443Z,13.00
2022-10-06T05:03:29.852Z,19.90
2022-10-06T05:04:05.268Z,14.60
2022-10-06T05:04:40.703Z,8.40
2022-10-06T05:05:15.999Z,6.10
2022-10-06T05:05:51.111Z,9.20
2022-10-06T05:06:26.565Z,17.10
2022-10-06T05:07:01.896Z,12.60
2022-10-06T05:07:36.994Z,20.80
2022-10-06T05:08:12.011Z,16.40
2022-10-06T05:08:47.323Z,12.90
2022-10-06T05:09:22.619Z,15.20
2022-10-06T05:09:58.030Z,13.00
2022-10-06T05:10:33.363Z,12.30
2022-10-06T05:11:08.562Z,9.50
2022-10-06T05:11:43.887Z,13.70
2022-10-06T05:12:18.982Z,13.60
2022-10-06T05:12:54.297Z,14.40
2022-10-06T05:13:29.731Z,12.50
2022-10-06T05:14:04.907Z,14.70
2022-10-06T05:14:40.127Z,15.60
2022-10-06T05:15:15.425Z,17.60
2022-10-06T05:15:50.574Z,13.60
2022-10-06T05:16:25.887Z,15.40
2022-10-06T05:17:01.569Z,17.70
2022-10-06T05:17:37.088Z,25.30
2022-10-06T05:18:12.290Z,20.40
2022-10-06T05:18:47.733Z,12.10
2022-10-06T05:19:23.196Z,8.40
2022-10-06T05:19:58.524Z,12.40
2022-10-06T05:20:33.798Z,13.00
2022-10-06T05:21:09.355Z,16.10
2022-10-06T05:21:44.539Z,16.40
2022-10-06T05:22:19.710Z,17.60
2022-10-06T05:22:54.938Z,13.30
2022-10-06T05:23:30.454Z,9.90
2022-10-06T05:24:05.688Z,6.80
2022-10-06T05:24:40.815Z,11.90
2022-10-06T05:25:16.487Z,12.20
2022-10-06T05:25:51.704Z,11.30
2022-10-06T05:26:27.418Z,14.50
2022-10-06T05:27:02.563Z,10.40
2022-10-06T05:27:37.849Z,10.40
2022-10-06T05:28:13.166Z,12.30
2022-10-06T05:28:48.558Z,13.00
2022-10-06T05:29:23.788Z,11.50
2022-10-06T05:29:59.002Z,9.40
2022-10-06T05:30:34.290Z,15.00
2022-10-06T05:31:09.599Z,12.80
2022-10-06T05:31:44.950Z,8.90
2022-10-06T05:32:20.044Z,8.70
2022-10-06T05:32:55.460Z,11.70
2022-10-06T05:33:30.571Z,11.90
2022-10-06T05:34:06.083Z,12.80
2022-10-06T05:34:41.380Z,12.80
2022-10-06T05:35:16.789Z,13.00
2022-10-06T05:35:52.212Z,11.70
2022-10-06T05:36:27.521Z,12.10
2022-10-06T05:37:02.648Z,14.60
2022-10-06T05:37:37.837Z,12.60
2022-10-06T05:38:13.033Z,10.00
2022-10-06T05:38:48.443Z,7.60
2022-10-06T05:39:23.749Z,6.90
2022-10-06T05:39:58.799Z,16.10
2022-10-06T05:40:33.910Z,19.70
2022-10-06T05:41:09.329Z,18.20
2022-10-06T05:41:44.599Z,12.70
2022-10-06T05:42:19.811Z,11.40
2022-10-06T05:42:54.822Z,12.10
2022-10-06T05:43:29.839Z,12.80
2022-10-06T05:44:04.939Z,10.00
2022-10-06T05:44:40.268Z,12.00
2022-10-06T05:45:15.381Z,10.00
2022-10-06T05:45:50.611Z,11.90
2022-10-06T05:46:25.867Z,11.00
2022-10-06T05:47:01.272Z,7.70
2022-10-06T05:47:36.170Z,10.40
2022-10-06T05:48:11.173Z,10.60
2022-10-06T05:48:46.285Z,6.90
2022-10-06T05:49:21.392Z,15.20
2022-10-06T05:49:56.611Z,16.00
2022-10-06T05:50:31.942Z,11.80
2022-10-06T05:51:07.075Z,15.50
2022-10-06T05:51:42.338Z,18.50
2022-10-06T05:52:17.404Z,13.50
2022-10-06T05:52:52.719Z,15.60
2022-10-06T05:53:28.081Z,14.60
2022-10-06T05:54:03.196Z,13.20
2022-10-06T05:54:38.385Z,10.00
2022-10-06T05:55:13.682Z,9.70
2022-10-06T05:55:48.983Z,10.70
2022-10-06T05:56:24.375Z,10.00
2022-10-06T05:56:59.674Z,9.10
2022-10-06T05:57:34.807Z,13.70
2022-10-06T05:58:09.867Z,13.80
2022-10-06T05:58:45.057Z,9.90
2022-10-06T05:59:20.058Z,6.60
2022-10-06T05:59:55.569Z,11.00
2022-10-06T06:00:30.798Z,12.50
2022-10-06T06:01:05.909Z,12.30
2022-10-06T06:01:41.373Z,15.60
2022-10-06T06:02:16.425Z,24.70
2022-10-06T06:02:51.590Z,20.20
2022-10-06T06:03:26.609Z,16.30
2022-10-06T06:04:02.221Z,13.30
2022-10-06T06:04:37.638Z,10.10
2022-10-06T06:05:13.230Z,15.00
2022-10-06T06:05:48.534Z,14.60
2022-10-06T06:06:23.838Z,16.20
2022-10-06T06:06:59.372Z,18.70
2022-10-06T06:07:34.753Z,11.40
2022-10-06T06:08:10.168Z,11.40
2022-10-06T06:08:45.685Z,13.30
2022-10-06T06:09:20.999Z,16.80
2022-10-06T06:09:56.225Z,8.80
2022-10-06T06:10:31.537Z,8.20
2022-10-06T06:11:06.781Z,10.20
2022-10-06T06:11:42.091Z,10.10
2022-10-06T06:12:16.976Z,11.40
2022-10-06T06:12:52.278Z,16.00
2022-10-06T06:13:27.476Z,13.00
2022-10-06T06:14:03.116Z,12.90
2022-10-06T06:14:38.241Z,15.60
2022-10-06T06:15:13.858Z,14.90
2022-10-06T06:15:48.931Z,12.10
2022-10-06T06:16:24.207Z,13.30
2022-10-06T06:16:59.374Z,14.20
2022-10-06T06:17:34.555Z,19.90
2022-10-06T06:18:09.875Z,16.30
2022-10-06T06:18:45.085Z,16.00
2022-10-06T06:19:20.524Z,11.50
2022-10-06T06:19:56.016Z,13.80
2022-10-06T06:20:31.333Z,12.40
2022-10-06T06:21:06.737Z,11.00
2022-10-06T06:21:41.869Z,12.70
2022-10-06T06:22:17.269Z,14.40
2022-10-06T06:22:52.489Z,15.20
2022-10-06T06:23:27.658Z,19.40
2022-10-06T06:24:03.184Z,16.40
2022-10-06T06:24:38.526Z,11.80
2022-10-06T06:25:13.614Z,11.50
2022-10-06T06:25:48.858Z,13.20
2022-10-06T06:26:23.974Z,10.10
2022-10-06T06:26:58.896Z,11.10
2022-10-06T06:27:34.528Z,11.60
2022-10-06T06:28:09.863Z,11.80
2022-10-06T06:28:45.183Z,12.40
2022-10-06T06:29:20.211Z,12.10
2022-10-06T06:29:55.380Z,7.90
2022-10-06T06:30:30.898Z,8.00
2022-10-06T06:31:06.142Z,12.50
2022-10-06T06:31:41.466Z,23.10
2022-10-06T06:32:16.734Z,17.30
2022-10-06T06:32:51.718Z,11.90
2022-10-06T06:33:26.842Z,21.30
2022-10-06T06:34:02.160Z,18.90
2022-10-06T06:34:37.360Z,14.00
2022-10-06T06:35:12.700Z,7.00
2022-10-06T06:35:47.904Z,8.70
2022-10-06T06:36:23.303Z,11.60
2022-10-06T06:37:03.629Z,12.70
2022-10-06T06:37:33.917Z,14.20
2022-10-06T06:38:09.332Z,10.10
2022-10-06T06:38:44.327Z,7.40
2022-10-06T06:39:19.458Z,10.40
2022-10-06T06:39:54.751Z,11.60
2022-10-06T06:40:29.778Z,11.60
2022-10-06T06:41:04.982Z,6.80
2022-10-06T06:41:40.302Z,8.20
2022-10-06T06:42:15.819Z,10.10
2022-10-06T06:42:53.786Z,9.10
2022-10-06T06:43:26.853Z,4.40
2022-10-06T06:44:01.560Z,7.50
2022-10-06T06:44:36.964Z,16.10
2022-10-06T06:45:12.366Z,12.00
2022-10-06T06:45:47.834Z,14.00
2022-10-06T06:46:23.285Z,12.90
2022-10-06T06:46:58.489Z,13.10
2022-10-06T06:47:33.637Z,9.00
2022-10-06T06:48:08.822Z,8.10
2022-10-06T06:48:43.854Z,11.40
2022-10-06T06:49:19.270Z,12.40
2022-10-06T06:49:54.265Z,7.70
2022-10-06T06:50:29.596Z,14.60
2022-10-06T06:51:04.811Z,14.00
2022-10-06T06:51:39.903Z,13.20
2022-10-06T06:52:15.913Z,8.10
2022-10-06T06:52:51.310Z,16.80
2022-10-06T06:53:26.627Z,21.90
2022-10-06T06:54:01.536Z,14.40
2022-10-06T06:54:36.759Z,10.90
2022-10-06T06:55:11.870Z,10.20
2022-10-06T06:55:47.273Z,11.00
2022-10-06T06:56:22.402Z,13.70
2022-10-06T06:56:57.614Z,14.60
2022-10-06T06:57:32.722Z,8.60
2022-10-06T06:58:08.025Z,9.10
2022-10-06T06:58:43.203Z,11.00
2022-10-06T06:59:18.414Z,10.20
2022-10-06T06:59:53.487Z,10.70
2022-10-06T07:00:32.488Z,10.70
2022-10-06T07:01:04.369Z,8.90
2022-10-06T07:01:39.599Z,10.00
2022-10-06T07:02:14.935Z,8.90
2022-10-06T07:02:50.061Z,7.00
2022-10-06T07:03:52.019Z,9.10
2022-10-06T07:04:00.751Z,10.10
2022-10-06T07:04:35.875Z,10.30
2022-10-06T07:05:11.083Z,13.40
2022-10-06T07:05:46.373Z,14.60
2022-10-06T07:06:23.531Z,11.20
2022-10-06T07:06:56.908Z,12.40
2022-10-06T07:07:32.130Z,11.70
2022-10-06T07:08:07.414Z,10.90
2022-10-06T07:08:42.643Z,8.80
2022-10-06T07:09:18.035Z,8.90
2022-10-06T07:09:53.582Z,14.20
2022-10-06T07:10:28.886Z,9.00
2022-10-06T07:11:04.132Z,18.10
2022-10-06T07:11:39.507Z,13.90
2022-10-06T07:12:14.594Z,11.40
2022-10-06T07:12:49.805Z,12.00
2022-10-06T07:13:25.686Z,13.40
2022-10-06T07:13:59.958Z,13.00
2022-10-06T07:14:35.243Z,9.80
2022-10-06T07:15:10.559Z,8.90
2022-10-06T07:15:45.681Z,7.80
2022-10-06T07:16:20.876Z,10.20
2022-10-06T07:16:56.076Z,12.50
2022-10-06T07:17:31.382Z,12.40
2022-10-06T07:18:06.806Z,9.00
2022-10-06T07:18:42.101Z,9.10
2022-10-06T07:19:20.073Z,9.70
2022-10-06T07:19:52.711Z,10.20
2022-10-06T07:20:28.545Z,9.60
2022-10-06T07:21:03.940Z,11.70
2022-10-06T07:21:38.855Z,13.70
2022-10-06T07:22:13.892Z,14.30
2022-10-06T07:22:49.106Z,8.80
2022-10-06T07:23:24.423Z,11.30
2022-10-06T07:23:59.621Z,11.30
2022-10-06T07:24:34.760Z,13.50
2022-10-06T07:25:09.741Z,16.50
2022-10-06T07:25:44.962Z,11.30
2022-10-06T07:26:20.063Z,10.40
2022-10-06T07:26:55.371Z,12.90
2022-10-06T07:27:30.492Z,12.60
2022-10-06T07:28:05.975Z,13.90
2022-10-06T07:28:41.345Z,10.00
2022-10-06T07:29:16.466Z,11.50
2022-10-06T07:29:51.826Z,13.30
2022-10-06T07:30:26.764Z,11.20
2022-10-06T07:31:02.061Z,9.50
2022-10-06T07:31:37.126Z,14.70
2022-10-06T07:32:12.477Z,15.50
2022-10-06T07:32:47.688Z,15.30
2022-10-06T07:33:22.798Z,8.20
2022-10-06T07:33:57.997Z,9.30
2022-10-06T07:34:33.210Z,8.50
2022-10-06T07:35:08.414Z,12.70
2022-10-06T07:35:43.492Z,17.60
2022-10-06T07:36:18.929Z,11.70
2022-10-06T07:36:54.042Z,7.30
2022-10-06T07:37:29.348Z,8.70
2022-10-06T07:38:04.666Z,7.40
2022-10-06T07:38:39.871Z,8.60
2022-10-06T07:39:15.006Z,9.10
2022-10-06T07:39:50.503Z,15.40
2022-10-06T07:40:25.837Z,15.60
2022-10-06T07:41:18.212Z,12.40
2022-10-06T07:41:36.746Z,13.80
2022-10-06T07:42:12.165Z,15.10
2022-10-06T07:42:47.252Z,11.70
2022-10-06T07:43:22.690Z,10.80